Main page
METAR-TAF:

METAR-TAF

Airports :

Falconara Airport

Ancona, Italy

latitude: 43-37N, longitude: 013-22E, elevation: 12 m

Current weather observation

The report was made 5 hours and 47 minutes ago, at 21:50 UTC
Wind 3 kt from the South
Temperature 22°C
Humidity 69%
Pressure 1014 hPa
Visibility 10 km or more
no clouds below 1500 m and no cumulonimbus

METAR: LIPY 162150Z 17003KT CAVOK 22/16 Q1014

Time: 05:37 (03:37 UTC)

Forecast

The report was made 10 hours and 37 minutes ago, at 17:00 UTC
Forecast valid from 16 at 18 UTC to 17 at 18 UTC
Wind 8 kt from the North/Northeast
Visibility 10 km or more
Few clouds at a height of 3000 ft

TAF: LIPY 161700Z 1618/1718 02008KT 9999 FEW030

Weather observations and forecasts of more than 4000 airports (METAR and TAF reports).

The available stations are represented by yellow and red dots on the map.

Hover mouse over dot to see the name of the station.

Then click to see weather observations and forecasts.

To change the map : click on the green buttons with a black cross to zoom in, on the green button with a dash to zoom out, or on the green arrows for adjacent maps.


METAR-TAF: